• Join FlightAware (Why Join?)
  • Login
  • US Flag 
Trick or treat! (Boo!!) 
05:27AM EDT


 

Airport Tracker/Info


-or-


 

Live Flight TrackerFlight Track Log ✈ AWE3874 ✈ 26-Apr-2013 ✈ KCLT - KMOB

Flight Track Log - Related Links

Times and Time Zones

All times are in EDT time to prevent confusion due to time zone crossing. See the AWE3874 flight status page for this flight to view local times or setup timezone preferences in your user account.

Time Position Orientation Groundspeed Altitude Reporting Facility
EDT Latitude Longitude Course Direction KTS MPH feet Rate Location/Type
01:24PM 35.2289 -80.9572 246° West 161 185 1,400  Level Atlanta Center
01:25PM 35.2436 -80.9617 346° North 167 192 2,100 1,800 Climbing Atlanta Center
01:26PM 35.2864 -81.0058 320° Northwest 215 247 3,800 1,740 Climbing Atlanta Center
01:27PM 35.2667 -81.1991 270° West  Level FlightAware Approximate
01:27PM 35.2867 -81.0975 270° West 280 322 5,700  Level Atlanta Center
01:27PM 35.2797 -81.1536 261° West 268 308 7,200 2,220 Climbing Atlanta Center
01:28PM 35.1763 -81.2554 199° South  Level FlightAware Approximate
01:28PM 35.2719 -81.1844 253° West 272 313 8,000  Level Atlanta Center
01:28PM 35.2375 -81.2314 228° Southwest 282 325 9,400 1,980 Climbing Atlanta Center
01:29PM 35.0786 -81.2998 251° West  Level FlightAware Approximate
01:29PM 35.1892 -81.3067 232° Southwest 291 335 11,300  Level Atlanta Center
01:30PM 35.0406 -81.4259 246° West  Level FlightAware Approximate
01:30PM 35.1328 -81.3925 231° Southwest 311 358 12,800  Level Atlanta Center
01:31PM 35.0719 -81.4806 230° Southwest 329 379 14,200 1,560 Climbing Atlanta Center
01:32PM 35.0111 -81.5714 231° Southwest 348 400 16,000 1,560 Climbing Atlanta Center
01:33PM 34.9717 -81.6789 246° West 354 407 17,400 1,080 Climbing Atlanta Center
01:34PM 34.9361 -81.7914 249° West 353 406 18,200 960 Climbing Atlanta Center
01:35PM 34.8817 -81.8942 237° Southwest 358 412 19,400 1,020 Climbing Atlanta Center
01:36PM 34.8311 -81.9839 236° Southwest 370 426 20,300 960 Climbing Atlanta Center
01:37PM 34.7661 -82.1019 236° Southwest 379 436 21,400 1,020 Climbing Atlanta Center
01:38PM 34.7072 -82.2044 235° Southwest 379 436 22,400 900 Climbing Atlanta Center
01:39PM 34.6461 -82.3117 235° Southwest 384 442 23,200 660 Climbing Atlanta Center
01:40PM 34.5828 -82.4189 234° Southwest 384 442 23,800 660 Climbing Atlanta Center
01:41PM 34.5197 -82.5286 235° Southwest 391 450 24,600 600 Climbing Atlanta Center
01:42PM 34.4622 -82.6278 235° Southwest 399 459 25,100 600 Climbing Atlanta Center
01:43PM 34.4008 -82.7397 236° Southwest 414 476 25,900 1,140 Climbing Atlanta Center
01:44PM 34.3394 -82.8464 235° Southwest 398 458 27,400 1,140 Climbing Atlanta Center
01:45PM 34.2758 -82.9503 233° Southwest 392 451 28,200 660 Climbing Atlanta Center
01:46PM 34.2100 -83.0642 235° Southwest 386 444 28,800 600 Climbing Atlanta Center
01:47PM 34.1481 -83.1678 234° Southwest 386 444 29,400 600 Climbing Atlanta Center
01:48PM 34.0883 -83.2714 235° Southwest 386 444 30,000 600 Climbing Atlanta Center
01:49PM 34.0261 -83.3772 235° Southwest 386 444 30,700 600 Climbing Atlanta Center
01:50PM 33.9619 -83.4803 233° Southwest 386 444 31,300 540 Climbing Atlanta Center
01:51PM 33.9042 -83.5858 237° Southwest 386 444 31,800 300 Climbing Atlanta Center
01:52PM 33.8417 -83.6886 234° Southwest 386 444 32,000 60 Climbing Atlanta Center
01:53PM 33.7794 -83.7939 235° Southwest 386 444 32,000  Level Atlanta Center
01:54PM 33.7189 -83.8914 233° Southwest 392 451 32,000  Level Atlanta Center
01:55PM 33.6586 -83.9939 235° Southwest 392 451 32,000  Level Atlanta Center
01:56PM 33.5958 -84.0936 233° Southwest 387 445 32,000  Level Atlanta Center
01:57PM 33.5375 -84.1958 236° Southwest 382 440 32,000  Level Atlanta Center
01:58PM 33.4767 -84.2928 233° Southwest 377 434 32,000  Level Atlanta Center
01:59PM 33.4139 -84.4022 236° Southwest 377 434 32,000  Level Atlanta Center
02:00PM 33.3531 -84.5014 234° Southwest 377 434 32,000  Level Atlanta Center
02:01PM 33.2942 -84.5981 234° Southwest 370 426 32,000  Level Atlanta Center
02:02PM 33.2331 -84.6969 234° Southwest 370 426 32,000  Level Atlanta Center
02:03PM 33.1761 -84.7933 235° Southwest 370 426 32,000  Level Atlanta Center
02:04PM 33.1150 -84.8944 234° Southwest 375 432 32,000  Level Atlanta Center
02:05PM 33.0558 -84.9931 234° Southwest 375 432 32,000  Level Atlanta Center
02:06PM 33.0008 -85.0817 234° Southwest 375 432 32,000  Level Atlanta Center
02:07PM 32.9331 -85.1847 232° Southwest 375 432 32,000  Level Atlanta Center
02:08PM 32.8736 -85.2828 234° Southwest 375 432 32,000  Level Atlanta Center
02:09PM 32.8142 -85.3808 234° Southwest 375 432 32,000  Level Atlanta Center
02:10PM 32.7506 -85.4786 232° Southwest 375 432 32,000  Level Atlanta Center
02:11PM 32.6908 -85.5789 235° Southwest 380 437 32,000  Level Atlanta Center
02:12PM 32.6292 -85.6767 233° Southwest 380 437 32,000  Level Atlanta Center
02:13PM 32.5650 -85.7764 233° Southwest 380 437 32,000  Level Atlanta Center
02:14PM 32.5011 -85.8811 234° Southwest 380 437 32,000  Level Atlanta Center
02:15PM 32.4389 -85.9783 233° Southwest 388 447 32,000  Level Atlanta Center
02:16PM 32.3725 -86.0825 233° Southwest 394 453 32,000  Level Atlanta Center
02:17PM 32.3039 -86.1867 232° Southwest 399 459 32,000  Level Atlanta Center
02:18PM 32.2375 -86.2931 234° Southwest 404 465 32,000  Level Atlanta Center
02:19PM 32.1747 -86.4019 236° Southwest 412 474 32,000  Level Atlanta Center
02:20PM 32.0978 -86.5053 229° Southwest 407 468 32,000 -420 Level Atlanta Center
02:21PM 32.0247 -86.6086 230° Southwest 413 475 31,200 -1,080 Descending Atlanta Center
02:22PM 31.9453 -86.7067 226° Southwest 429 494 29,900 -1,500 Descending Atlanta Center
02:23PM 31.8678 -86.8144 230° Southwest 442 509 28,300 -1,680 Descending Atlanta Center
02:24PM 31.7903 -86.9219 230° Southwest 442 509 26,600 -1,800 Descending Atlanta Center
02:25PM 31.7128 -87.0244 228° Southwest 437 503 24,700 -1,860 Descending Atlanta Center
02:28PM 31.5283 -87.2778 230° Southwest 398 458 20,200 -1,800 Descending Houston Center
02:29PM 31.4581 -87.3739 229° Southwest 390 449 18,500 -1,440 Descending Houston Center
02:30PM 31.3872 -87.4706 229° Southwest 391 450 17,300 -1,500 Descending Houston Center
02:31PM 31.3047 -87.5833 229° Southwest 382 440 15,400 -1,680 Descending Houston Center
02:32PM 31.2361 -87.6753 229° Southwest 376 433 13,900 -1,500 Descending Houston Center
02:33PM 31.1706 -87.7639 229° Southwest 363 418 12,400 -1,500 Descending Houston Center
02:34PM 31.1106 -87.8461 230° Southwest 338 389 10,900 -1,380 Descending Houston Center
02:35PM 31.0567 -87.9183 229° Southwest 301 346 9,600 -1,380 Descending Houston Center
02:36PM 31.0075 -87.9853 229° Southwest 278 320 8,100 -720 Descending Houston Center
02:37PM 30.9583 -88.0503 229° Southwest 267 307 8,100 -960 Level Houston Center
02:38PM 30.8969 -88.1303 228° Southwest 272 313 6,200 -1,920 Descending Houston Center